Isle of Jura, United Kingdom
Current Conditions -  °F | °C
As of 4:20 AM on Friday 19 Dec 2014 (Local Time) from EGPI Reporting Station
Few Clouds Few Clouds  
Wind Chill:   Ceiling: Unl
Heat Index:   Visibility: 6mi
Dew Point:   Wind: 32mph
Humidity: 71%   Direction: 280°W
Pressure: 29.53"   Gusts: NA
Location:  55.84°N, 5.95°W
Report Text: EGPI 190420Z AUTO 28028KT 9999 FEW038/// 07/02 Q1000 RERA
Loading
Personal Weather Stations






























Interactive Weather Map New forecast layout! Learn more

10-Day Weather Forecast

Advertisements
Track Severe Weather on mobile